Aérodrome :
LOGIN :

S'inscrire | Disclaimer

   EN    FR    IT 

 










Légende :    VFR   VFR Marginal   IFR   IFR Intensif   IFR Très Intensif
Visi : 
Plafond : 
>= 8 km
>= 3000ft
5 à 8 km
1000 à 3000 ft
1500m à 5 km
500 à 1000 ft
800 à 1500m
200 à 500 ft
< 800m
< 200 ft
Symboles :   Orages  Brouillard  Fortes neiges  Fortes précipitations  Vent > 20 kt
SIGMETs :   Divers  Orages  Givrage  Turbulence  Onde Orograph.  Cendres Volcan.






- Altitude de l'aérodrome : 65 ft
- Code IATA : PIK


EGPK - Glasgow Prestwick

DERNIER METAR :
  • 141150Z 24011KT 9999 FEW009 SCT020 BKN027 14/11 Q1016

METARs EXPIRÉS :
  • 141120Z 25012KT 9999 -RA FEW009 SCT020 BKN027 14/11 Q1016
  • 141050Z 25007KT 9999 SCT019 BKN028 15/10 Q1016
  • 141020Z 28006KT 240V310 9999 SCT019 BKN028 14/10 Q1016
  • 140950Z 25005KT 220V280 9999 FEW009 SCT017 BKN025 14/10 Q1017
  • 140920Z 28006KT 9999 FEW009 SCT017 BKN025 14/10 Q1017
  • 140850Z 28006KT 9999 SCT020 BKN030 14/10 Q1017

TAF TAF EGPK
Valide du 14 à 12h jusqu'au 15 à 12h UTC


141059Z 1412/1512 25009KT 9999 FEW020 SCT030
TEMPO 1412/1512 7000 -RADZ BKN012
PROB30
TEMPO 1414/1512 3000 RADZ BKN006



MET'MAP, la Météo Aéronautique d'un coup d'oeil ! - Copyright ORBIFLY Décembre 2007 - Disclaimer

ORBIFLY MET'MAP TEAM :

Programmation & Développement : Alexandra Zaïnal
Sur une idée originale de : Baudouin d'Aumeries
Assistance à la programmation : Marc-Olivier Méhu
Soutien technique & logistique : Manuel Goepfert

Contact : metmap@orbifly.com




SOURCES & CREDITS :

   NOAA